createdAt,value
2023-06-11T00:02:07.397Z,8.67
2023-06-11T00:05:10.751Z,8.67
2023-06-11T00:08:12.657Z,8.30
2023-06-11T00:11:14.432Z,9.13
2023-06-11T00:14:16.134Z,8.50
2023-06-11T00:17:17.803Z,8.60
2023-06-11T00:20:19.444Z,8.50
2023-06-11T00:23:21.061Z,8.53
2023-06-11T00:26:23.693Z,8.13
2023-06-11T00:29:25.443Z,9.27
2023-06-11T00:32:27.126Z,8.33
2023-06-11T00:35:28.958Z,8.83
2023-06-11T00:38:31.877Z,9.03
2023-06-11T00:41:33.498Z,8.77
2023-06-11T00:44:35.198Z,8.90
2023-06-11T00:47:38.137Z,8.53
2023-06-11T00:50:46.479Z,8.80
2023-06-11T00:53:48.326Z,9.00
2023-06-11T00:56:50.021Z,9.60
2023-06-11T00:59:52.436Z,8.30
2023-06-11T01:03:01.268Z,8.60
2023-06-11T01:06:14.396Z,8.63
2023-06-11T01:09:18.003Z,8.93
2023-06-11T01:12:21.586Z,8.87
2023-06-11T01:15:23.225Z,8.90
2023-06-11T01:18:30.121Z,8.60
2023-06-11T01:21:34.478Z,8.83
2023-06-11T01:24:55.015Z,8.90
2023-06-11T01:28:02.695Z,9.33
2023-06-11T01:31:08.103Z,9.50
2023-06-11T01:34:11.204Z,9.43
2023-06-11T01:37:13.289Z,9.50
2023-06-11T01:40:21.500Z,9.17
2023-06-11T01:43:29.678Z,9.53
2023-06-11T01:46:31.445Z,9.17
2023-06-11T01:49:33.266Z,9.30
2023-06-11T01:52:35.039Z,9.27
2023-06-11T01:55:37.936Z,9.70
2023-06-11T01:58:39.758Z,9.03
2023-06-11T02:01:41.668Z,10.00
2023-06-11T02:04:43.447Z,9.00
2023-06-11T02:07:45.350Z,8.80
2023-06-11T02:10:47.506Z,8.80
2023-06-11T02:13:49.331Z,9.23
2023-06-11T02:16:51.034Z,8.60
2023-06-11T02:19:54.435Z,8.83
2023-06-11T02:22:56.256Z,8.37
2023-06-11T02:25:57.997Z,9.53
2023-06-11T02:29:00.178Z,9.10
2023-06-11T02:32:01.918Z,9.73
2023-06-11T02:35:04.582Z,9.10
2023-06-11T02:38:06.281Z,8.77
2023-06-11T02:41:07.887Z,8.67
2023-06-11T02:44:09.499Z,8.70
2023-06-11T02:47:11.288Z,8.77
2023-06-11T02:50:13.748Z,8.60
2023-06-11T02:53:15.429Z,9.00
2023-06-11T02:56:17.199Z,9.60
2023-06-11T02:59:18.993Z,8.80
2023-06-11T03:02:20.688Z,9.40
2023-06-11T03:05:22.420Z,8.67
2023-06-11T03:08:24.635Z,8.73
2023-06-11T03:11:27.138Z,8.70
2023-06-11T03:14:29.153Z,7.97
2023-06-11T03:17:31.145Z,8.43
2023-06-11T03:20:32.877Z,8.23
2023-06-11T03:23:35.015Z,8.27
2023-06-11T03:26:37.060Z,8.10
2023-06-11T03:29:38.799Z,8.87
2023-06-11T03:32:41.021Z,8.37
2023-06-11T03:35:45.188Z,8.70
2023-06-11T03:38:55.272Z,7.73
2023-06-11T03:41:57.896Z,7.70
2023-06-11T03:45:02.950Z,8.10
2023-06-11T03:48:07.120Z,8.50
2023-06-11T03:51:09.314Z,8.40
2023-06-11T03:54:11.200Z,7.77
2023-06-11T03:57:13.579Z,8.50
2023-06-11T04:00:15.664Z,7.93
2023-06-11T04:03:18.233Z,8.00
2023-06-11T04:06:20.083Z,7.97
2023-06-11T04:09:22.767Z,7.63
2023-06-11T04:12:24.607Z,7.50
2023-06-11T04:15:26.937Z,7.67
2023-06-11T04:18:29.794Z,7.33
2023-06-11T04:21:32.059Z,7.27
2023-06-11T04:24:33.805Z,7.10
2023-06-11T04:27:37.798Z,6.87
2023-06-11T04:30:42.118Z,7.00
2023-06-11T04:33:43.886Z,7.50
2023-06-11T04:36:45.571Z,7.00
2023-06-11T04:39:47.360Z,6.50
2023-06-11T04:42:50.948Z,6.73
2023-06-11T04:45:56.923Z,7.43
2023-06-11T04:49:01.412Z,7.00
2023-06-11T04:52:04.352Z,7.13
2023-06-11T04:55:06.700Z,6.70
2023-06-11T04:58:09.662Z,6.80
2023-06-11T05:01:13.461Z,6.70
2023-06-11T05:04:15.818Z,6.53
2023-06-11T05:07:18.517Z,6.23
2023-06-11T05:10:20.209Z,6.70
2023-06-11T05:13:26.137Z,6.97
2023-06-11T05:16:31.148Z,6.60
2023-06-11T05:19:33.146Z,6.23
2023-06-11T05:22:35.597Z,6.93
2023-06-11T05:25:47.683Z,6.03
2023-06-11T05:28:52.379Z,6.57
2023-06-11T05:31:54.167Z,5.87
2023-06-11T05:34:57.225Z,5.10
2023-06-11T05:37:59.074Z,4.97
2023-06-11T05:41:02.645Z,5.13
2023-06-11T05:44:04.735Z,4.85
2023-06-11T05:47:06.793Z,4.47
2023-06-11T05:50:09.044Z,4.72
2023-06-11T05:53:11.103Z,4.60
2023-06-11T05:56:15.664Z,4.50
2023-06-11T05:59:17.262Z,5.55
2023-06-11T06:02:19.385Z,4.63
2023-06-11T06:05:22.934Z,5.07
2023-06-11T06:08:24.640Z,5.00
2023-06-11T06:11:26.988Z,4.90
2023-06-11T06:14:29.600Z,7.72
2023-06-11T06:17:32.087Z,5.35
2023-06-11T06:20:34.587Z,5.55
2023-06-11T06:23:36.268Z,5.50
2023-06-11T06:26:45.107Z,5.65
2023-06-11T06:29:47.234Z,5.05
2023-06-11T06:32:48.997Z,5.35
2023-06-11T06:35:50.903Z,5.30
2023-06-11T06:38:54.338Z,5.28
2023-06-11T06:41:56.374Z,5.60
2023-06-11T06:45:10.133Z,5.50
2023-06-11T06:48:12.658Z,5.63
2023-06-11T06:51:14.578Z,5.20
2023-06-11T06:54:19.715Z,6.32
2023-06-11T06:57:23.633Z,5.35
2023-06-11T07:00:25.433Z,6.80
2023-06-11T07:03:27.457Z,5.68
2023-06-11T07:06:29.299Z,5.40
2023-06-11T07:09:31.572Z,6.20
2023-06-11T07:12:33.929Z,6.22
2023-06-11T07:15:35.686Z,5.60
2023-06-11T07:18:38.247Z,6.00
2023-06-11T07:21:41.454Z,5.55
2023-06-11T07:24:48.233Z,5.97
2023-06-11T07:27:51.594Z,5.78
2023-06-11T07:30:53.347Z,5.15
2023-06-11T07:33:55.142Z,5.20
2023-06-11T07:36:57.093Z,5.43
2023-06-11T07:39:58.731Z,5.75
2023-06-11T07:43:00.773Z,5.65
2023-06-11T07:46:05.780Z,5.75
2023-06-11T07:49:07.644Z,5.88
2023-06-11T07:52:09.419Z,5.68
2023-06-11T07:55:14.524Z,5.20
2023-06-11T07:58:16.688Z,5.88
2023-06-11T08:01:18.402Z,5.18
2023-06-11T08:04:20.123Z,5.45
2023-06-11T08:07:21.754Z,6.13
2023-06-11T08:10:23.569Z,5.38
2023-06-11T08:13:25.257Z,5.18
2023-06-11T08:16:26.971Z,5.00
2023-06-11T08:19:28.699Z,5.32
2023-06-11T08:22:30.303Z,5.20
2023-06-11T08:25:32.945Z,5.75
2023-06-11T08:28:36.088Z,5.28
2023-06-11T08:31:38.410Z,5.20
2023-06-11T08:34:40.073Z,5.22
2023-06-11T08:37:41.800Z,4.95
2023-06-11T08:40:43.491Z,5.10
2023-06-11T08:43:45.209Z,5.50
2023-06-11T08:46:49.820Z,5.15
2023-06-11T08:49:52.463Z,5.15
2023-06-11T08:52:54.272Z,5.45
2023-06-11T08:55:56.114Z,5.47
2023-06-11T08:58:58.462Z,5.25
2023-06-11T09:02:00.994Z,5.68
2023-06-11T09:05:03.972Z,6.00
2023-06-11T09:08:09.349Z,5.80
2023-06-11T09:11:11.000Z,5.30
2023-06-11T09:14:13.502Z,5.03
2023-06-11T09:17:18.282Z,5.20
2023-06-11T09:20:20.200Z,5.20
2023-06-11T09:23:29.040Z,4.90
2023-06-11T09:26:32.635Z,5.50
2023-06-11T09:29:35.929Z,4.93
2023-06-11T09:32:41.353Z,5.57
2023-06-11T09:35:43.709Z,5.47
2023-06-11T09:38:48.658Z,4.80
2023-06-11T09:41:51.377Z,5.53
2023-06-11T09:44:57.676Z,5.45
2023-06-11T09:48:00.029Z,5.10
2023-06-11T09:51:03.865Z,5.30
2023-06-11T09:54:07.801Z,5.55
2023-06-11T09:57:10.121Z,5.15
2023-06-11T10:00:13.772Z,4.75
2023-06-11T10:03:16.141Z,5.82
2023-06-11T10:06:20.479Z,5.10
2023-06-11T10:09:22.545Z,5.43
2023-06-11T10:12:24.270Z,5.18
2023-06-11T10:15:26.082Z,5.00
2023-06-11T10:18:27.915Z,5.75
2023-06-11T10:21:41.207Z,5.68
2023-06-11T10:24:42.879Z,5.32
2023-06-11T10:27:45.103Z,5.35
2023-06-11T10:30:53.756Z,5.68
2023-06-11T10:34:05.234Z,4.75
2023-06-11T10:37:07.337Z,5.43
2023-06-11T10:40:09.785Z,5.38
2023-06-11T10:43:21.443Z,4.85
2023-06-11T10:46:23.171Z,5.40
2023-06-11T10:49:28.775Z,5.18
2023-06-11T10:52:30.494Z,5.30
2023-06-11T10:55:32.903Z,5.22
2023-06-11T10:58:34.954Z,5.10
2023-06-11T11:01:37.585Z,4.88
2023-06-11T11:04:50.822Z,4.65
2023-06-11T11:07:54.874Z,4.38
2023-06-11T11:10:57.566Z,5.18
2023-06-11T11:14:01.778Z,4.57
2023-06-11T11:17:04.093Z,4.60
2023-06-11T11:20:12.587Z,4.63
2023-06-11T11:23:14.314Z,5.20
2023-06-11T11:26:18.434Z,4.68
2023-06-11T11:29:20.202Z,4.57
2023-06-11T11:32:22.733Z,5.03
2023-06-11T11:35:26.414Z,4.50
2023-06-11T11:38:33.593Z,4.72
2023-06-11T11:41:44.338Z,4.70
2023-06-11T11:44:46.029Z,4.15
2023-06-11T11:47:54.362Z,4.32
2023-06-11T11:51:07.352Z,4.50
2023-06-11T11:54:13.817Z,4.75
2023-06-11T11:57:19.670Z,4.43
2023-06-11T12:00:27.308Z,4.70
2023-06-11T12:03:29.310Z,4.60
2023-06-11T12:06:34.185Z,4.22
2023-06-11T12:09:36.235Z,4.68
2023-06-11T12:12:37.962Z,4.78
2023-06-11T12:15:39.662Z,4.72
2023-06-11T12:18:41.623Z,4.68
2023-06-11T12:21:43.276Z,4.80
2023-06-11T12:24:44.971Z,5.35
2023-06-11T12:27:46.760Z,4.20
2023-06-11T12:30:49.363Z,4.97
2023-06-11T12:33:52.134Z,4.55
2023-06-11T12:36:53.871Z,5.28
2023-06-11T12:39:55.631Z,4.80
2023-06-11T12:42:58.312Z,4.63
2023-06-11T12:46:00.541Z,4.70
2023-06-11T12:49:02.182Z,4.20
2023-06-11T12:52:03.978Z,4.10
2023-06-11T12:55:05.819Z,4.32
2023-06-11T12:58:07.878Z,4.13
2023-06-11T13:01:10.179Z,4.17
2023-06-11T13:04:12.044Z,4.10
2023-06-11T13:07:14.127Z,4.07
2023-06-11T13:10:16.100Z,4.13
2023-06-11T13:13:18.004Z,3.93
2023-06-11T13:16:19.762Z,4.32
2023-06-11T13:19:21.704Z,4.23
2023-06-11T13:22:23.602Z,4.17
2023-06-11T13:25:25.349Z,4.00
2023-06-11T13:28:28.167Z,3.90
2023-06-11T13:31:29.823Z,4.10
2023-06-11T13:34:33.692Z,3.80
2023-06-11T13:37:37.251Z,4.40
2023-06-11T13:40:38.932Z,4.10
2023-06-11T13:43:40.706Z,3.80
2023-06-11T13:46:42.474Z,4.47
2023-06-11T13:49:44.164Z,4.07
2023-06-11T13:52:46.028Z,4.32
2023-06-11T13:55:48.428Z,4.22
2023-06-11T13:58:51.435Z,4.30
2023-06-11T14:01:53.361Z,4.00
2023-06-11T14:04:55.140Z,4.65
2023-06-11T14:07:57.549Z,4.30
2023-06-11T14:10:59.262Z,4.10
2023-06-11T14:14:01.440Z,3.85
2023-06-11T14:17:06.323Z,4.10
2023-06-11T14:20:08.449Z,4.40
2023-06-11T14:23:10.386Z,3.97
2023-06-11T14:26:12.040Z,4.20
2023-06-11T14:29:13.837Z,3.90
2023-06-11T14:32:15.634Z,4.50
2023-06-11T14:35:17.279Z,4.28
2023-06-11T14:38:19.170Z,4.35
2023-06-11T14:41:20.826Z,4.20
2023-06-11T14:44:22.600Z,4.55
2023-06-11T14:47:24.407Z,4.80
2023-06-11T14:50:26.600Z,4.25
2023-06-11T14:53:28.234Z,4.30
2023-06-11T14:56:29.921Z,4.07
2023-06-11T14:59:31.759Z,4.72
2023-06-11T15:02:36.592Z,4.05
2023-06-11T15:05:39.323Z,4.35
2023-06-11T15:08:41.250Z,5.90
2023-06-11T15:11:42.829Z,4.45
2023-06-11T15:14:44.586Z,4.50
2023-06-11T15:17:46.259Z,5.30
2023-06-11T15:20:47.936Z,4.65
2023-06-11T15:23:49.592Z,4.70
2023-06-11T15:26:54.729Z,5.03
2023-06-11T15:29:56.580Z,5.03
2023-06-11T15:32:59.617Z,5.55
2023-06-11T15:36:03.028Z,4.97
2023-06-11T15:39:04.712Z,5.13
2023-06-11T15:42:06.785Z,5.83
2023-06-11T15:45:09.908Z,5.80
2023-06-11T15:48:16.576Z,5.23
2023-06-11T15:51:18.436Z,5.20
2023-06-11T15:54:20.237Z,5.13
2023-06-11T15:57:22.302Z,4.80
2023-06-11T16:00:24.089Z,4.97
2023-06-11T16:03:25.966Z,5.03
2023-06-11T16:06:27.909Z,5.07
2023-06-11T16:09:29.829Z,5.37
2023-06-11T16:12:31.553Z,5.23
2023-06-11T16:15:36.452Z,5.43
2023-06-11T16:18:43.657Z,6.23
2023-06-11T16:21:45.703Z,5.80
2023-06-11T16:24:47.725Z,6.57
2023-06-11T16:27:49.712Z,5.70
2023-06-11T16:30:51.436Z,5.23
2023-06-11T16:33:58.997Z,5.97
2023-06-11T16:37:01.081Z,5.80
2023-06-11T16:40:03.112Z,5.57
2023-06-11T16:43:05.281Z,5.30
2023-06-11T16:46:09.993Z,6.00
2023-06-11T16:49:11.943Z,6.27
2023-06-11T16:52:14.379Z,6.67
2023-06-11T16:55:18.892Z,5.90
2023-06-11T16:58:21.039Z,6.40
2023-06-11T17:01:23.475Z,7.30
2023-06-11T17:04:25.342Z,6.90
2023-06-11T17:07:27.102Z,7.33
2023-06-11T17:10:29.792Z,7.00
2023-06-11T17:13:31.466Z,7.00
2023-06-11T17:16:33.251Z,7.33
2023-06-11T17:19:34.929Z,7.87
2023-06-11T17:22:36.619Z,7.03
2023-06-11T17:25:38.362Z,6.67
2023-06-11T17:28:40.137Z,7.07
2023-06-11T17:31:41.821Z,7.27
2023-06-11T17:34:43.597Z,7.10
2023-06-11T17:37:45.397Z,8.00
2023-06-11T17:40:47.046Z,8.50
2023-06-11T17:43:48.713Z,8.13
2023-06-11T17:46:50.824Z,8.73
2023-06-11T17:49:52.472Z,9.80
2023-06-11T17:52:55.169Z,9.73
2023-06-11T17:55:56.877Z,8.23
2023-06-11T17:58:58.623Z,8.60
2023-06-11T18:02:00.587Z,8.13
2023-06-11T18:05:02.541Z,8.40
2023-06-11T18:08:04.234Z,8.27
2023-06-11T18:11:06.539Z,7.13
2023-06-11T18:14:08.905Z,7.73
2023-06-11T18:17:10.562Z,8.47
2023-06-11T18:20:12.306Z,7.80
2023-06-11T18:23:13.926Z,7.87
2023-06-11T18:26:15.772Z,7.70
2023-06-11T18:29:17.543Z,8.00
2023-06-11T18:32:19.350Z,8.37
2023-06-11T18:35:21.156Z,8.57
2023-06-11T18:38:22.799Z,8.53
2023-06-11T18:41:24.531Z,8.83
2023-06-11T18:44:26.226Z,8.40
2023-06-11T18:47:28.194Z,8.13
2023-06-11T18:50:29.934Z,8.30
2023-06-11T18:53:31.637Z,8.47
2023-06-11T18:56:33.243Z,9.53
2023-06-11T18:59:37.709Z,8.50
2023-06-11T19:02:39.497Z,7.67
2023-06-11T19:05:42.438Z,8.17
2023-06-11T19:08:44.167Z,7.90
2023-06-11T19:11:48.528Z,7.90
2023-06-11T19:14:50.627Z,7.70
2023-06-11T19:17:52.347Z,7.87
2023-06-11T19:20:54.617Z,7.93
2023-06-11T19:23:56.498Z,7.57
2023-06-11T19:26:58.372Z,8.00
2023-06-11T19:30:00.098Z,7.93
2023-06-11T19:33:02.092Z,7.90
2023-06-11T19:36:04.269Z,7.70
2023-06-11T19:39:06.106Z,8.60
2023-06-11T19:42:07.897Z,8.33
2023-06-11T19:45:10.865Z,8.13
2023-06-11T19:48:12.986Z,8.53
2023-06-11T19:51:14.737Z,8.00
2023-06-11T19:54:16.370Z,8.90
2023-06-11T19:57:18.808Z,9.27
2023-06-11T20:00:20.927Z,9.30
2023-06-11T20:03:22.593Z,8.93
2023-06-11T20:06:24.324Z,9.47
2023-06-11T20:09:26.029Z,9.93
2023-06-11T20:12:27.739Z,9.80
2023-06-11T20:15:29.411Z,9.00
2023-06-11T20:18:33.481Z,9.13
2023-06-11T20:21:35.174Z,8.83
2023-06-11T20:24:36.956Z,8.93
2023-06-11T20:27:38.724Z,9.30
2023-06-11T20:30:40.451Z,8.43
2023-06-11T20:33:42.161Z,8.93
2023-06-11T20:36:44.176Z,9.47
2023-06-11T20:39:45.918Z,8.63
2023-06-11T20:42:47.757Z,8.83
2023-06-11T20:45:57.777Z,8.80
2023-06-11T20:49:00.767Z,9.30
2023-06-11T20:52:02.495Z,9.37
2023-06-11T20:55:04.293Z,8.73
2023-06-11T20:58:05.978Z,9.13
2023-06-11T21:01:07.689Z,9.20
2023-06-11T21:04:09.560Z,8.97
2023-06-11T21:07:11.275Z,8.87
2023-06-11T21:10:13.189Z,10.03
2023-06-11T21:13:15.215Z,9.87
2023-06-11T21:16:16.860Z,9.20
2023-06-11T21:19:18.682Z,9.40
2023-06-11T21:22:20.371Z,10.03
2023-06-11T21:25:22.083Z,9.83
2023-06-11T21:28:23.835Z,10.03
2023-06-11T21:31:25.696Z,9.83
2023-06-11T21:34:27.310Z,9.40
2023-06-11T21:37:29.009Z,10.03
2023-06-11T21:40:30.743Z,10.20
2023-06-11T21:43:32.363Z,10.77
2023-06-11T21:46:34.076Z,10.87
2023-06-11T21:49:35.966Z,9.90
2023-06-11T21:52:42.356Z,10.07
2023-06-11T21:55:44.561Z,10.57
2023-06-11T21:58:46.222Z,9.70
2023-06-11T22:01:48.026Z,10.07
2023-06-11T22:04:49.781Z,9.23
2023-06-11T22:07:52.816Z,9.83
2023-06-11T22:10:54.549Z,10.73
2023-06-11T22:13:58.843Z,9.93
2023-06-11T22:17:00.627Z,10.80
2023-06-11T22:20:07.953Z,9.90
2023-06-11T22:23:09.658Z,10.43
2023-06-11T22:26:12.095Z,10.30
2023-06-11T22:29:14.000Z,10.00
2023-06-11T22:32:15.783Z,9.73
2023-06-11T22:35:17.717Z,10.17
2023-06-11T22:38:19.337Z,9.87
2023-06-11T22:41:23.259Z,10.00
2023-06-11T22:44:24.872Z,9.83
2023-06-11T22:47:29.512Z,10.30
2023-06-11T22:50:31.559Z,9.43
2023-06-11T22:53:33.220Z,9.60
2023-06-11T22:56:34.887Z,9.47
2023-06-11T22:59:36.678Z,9.10
2023-06-11T23:02:38.425Z,9.13
2023-06-11T23:05:40.110Z,9.13
2023-06-11T23:08:42.384Z,8.87
2023-06-11T23:11:44.580Z,9.57
2023-06-11T23:14:46.148Z,9.57
2023-06-11T23:17:51.124Z,8.73
2023-06-11T23:20:54.773Z,8.60
2023-06-11T23:23:57.715Z,8.80
2023-06-11T23:27:03.624Z,8.70
2023-06-11T23:30:06.192Z,9.10
2023-06-11T23:33:08.047Z,9.07
2023-06-11T23:36:09.804Z,9.37
2023-06-11T23:39:11.788Z,8.90
2023-06-11T23:42:13.423Z,8.83
2023-06-11T23:45:15.183Z,9.20
2023-06-11T23:48:16.789Z,9.63
2023-06-11T23:51:21.199Z,9.73
2023-06-11T23:54:22.846Z,9.23
2023-06-11T23:57:26.392Z,9.10
